Time;durP1;ratioP1;P1;durP2;ratioP2;P2;SDS_P1;SDS_P2;PMS_P1;PMS_P2;Temp;Humidity;BMP_temperature;BMP_pressure;BME280_temperature;BME280_humidity;BME280_pressure;Samples;Min_cycle;Max_cycle;Signal;HPM_P1;HPM_P2
2022/10/05 00:00:44;;;;;;;3.95;2.28;;;;;;;12.32;63.17;101205.97;5108975;27;20030;-32
2022/10/05 00:03:10;;;;;;;4.60;2.40;;;;;;;12.30;63.18;101202.44;5096034;28;20035;-32
2022/10/05 00:05:36;;;;;;;4.95;2.42;;;;;;;12.28;63.25;101204.25;5108970;27;20087;-32
2022/10/05 00:08:18;;;;;;;4.88;2.58;;;;;;;12.27;63.29;101202.50;5079208;28;20027;-33
2022/10/05 00:10:44;;;;;;;3.97;2.20;;;;;;;12.26;63.19;101203.34;5088910;27;20040;-33
2022/10/05 00:13:21;;;;;;;4.38;2.38;;;;;;;12.25;63.42;101204.25;5106280;27;20024;-34
2022/10/05 00:15:47;;;;;;;4.22;2.33;;;;;;;12.21;63.48;101207.81;5104373;28;20027;-32
2022/10/05 00:18:17;;;;;;;4.13;2.20;;;;;;;12.19;63.52;101206.06;5075957;28;20027;-33
2022/10/05 00:20:44;;;;;;;4.40;2.45;;;;;;;12.16;63.25;101194.63;5110040;28;20026;-32
2022/10/05 00:23:28;;;;;;;3.95;2.20;;;;;;;12.09;63.61;101192.91;5086960;28;20040;-32
2022/10/05 00:25:54;;;;;;;3.50;2.13;;;;;;;12.04;64.31;101195.56;5110358;27;20436;-33
2022/10/05 00:28:27;;;;;;;4.55;2.22;;;;;;;12.06;64.58;101199.09;5118861;27;20035;-32
2022/10/05 00:30:57;;;;;;;5.18;2.30;;;;;;;12.04;65.24;101195.56;5114835;27;20027;-33
2022/10/05 00:33:22;;;;;;;4.93;2.28;;;;;;;12.07;65.09;101206.13;5116863;27;20050;-32
2022/10/05 00:35:48;;;;;;;3.90;2.15;;;;;;;12.07;65.04;101206.13;5076885;28;20494;-32
2022/10/05 00:38:13;;;;;;;5.05;2.30;;;;;;;12.06;64.94;101209.69;5114947;27;20030;-32
2022/10/05 00:41:17;;;;;;;3.50;2.13;;;;;;;12.08;65.18;101214.94;5109176;28;20034;-34
2022/10/05 00:44:06;;;;;;;5.90;2.55;;;;;;;12.05;64.97;101229.03;5007293;28;20335;-32
2022/10/05 00:46:57;;;;;;;4.28;2.00;;;;;;;12.03;64.85;101234.34;5008101;28;20041;-33
2022/10/05 00:49:35;;;;;;;3.58;2.20;;;;;;;12.03;64.68;101236.97;5088782;28;20039;-32
2022/10/05 00:52:10;;;;;;;2.97;2.03;;;;;;;12.00;64.80;101238.78;5093159;28;20047;-32
2022/10/05 00:54:48;;;;;;;4.30;2.15;;;;;;;12.00;65.12;101252.84;5107807;28;20032;-32
2022/10/05 00:57:32;;;;;;;4.78;2.20;;;;;;;11.99;65.12;101250.22;5086877;28;20036;-34
2022/10/05 01:00:15;;;;;;;3.42;2.42;;;;;;;11.97;65.41;101247.59;5109911;28;20041;-35
2022/10/05 01:03:10;;;;;;;5.47;2.55;;;;;;;11.96;65.25;101239.66;5093636;28;20034;-33
2022/10/05 01:05:54;;;;;;;4.85;2.25;;;;;;;11.96;65.06;101229.09;5096422;28;20019;-31
2022/10/05 01:08:38;;;;;;;3.53;2.05;;;;;;;11.93;64.84;101238.81;5104975;28;20384;-33
2022/10/05 01:11:18;;;;;;;4.68;2.42;;;;;;;11.92;64.94;101229.13;5092237;28;20023;-33
2022/10/05 01:14:03;;;;;;;3.97;2.40;;;;;;;11.92;64.82;101230.88;5115073;27;20026;-32
2022/10/05 01:16:37;;;;;;;3.58;2.03;;;;;;;11.88;64.73;101227.38;5089431;28;20033;-33
2022/10/05 01:19:40;;;;;;;4.80;2.20;;;;;;;11.87;64.55;101225.63;5085789;27;20114;-33
2022/10/05 01:22:19;;;;;;;3.88;2.45;;;;;;;11.86;64.68;101222.97;5104596;28;20542;-32
2022/10/05 01:25:00;;;;;;;3.88;2.30;;;;;;;11.85;64.65;101222.13;5087994;28;20390;-32
2022/10/05 01:27:40;;;;;;;3.42;2.13;;;;;;;11.84;64.37;101220.34;5107890;27;20036;-34
2022/10/05 01:30:11;;;;;;;3.35;1.83;;;;;;;11.85;63.99;101208.00;5092117;28;20028;-33
2022/10/05 01:33:03;;;;;;;3.17;2.15;;;;;;;11.83;64.31;101209.81;5089391;28;20024;-32
2022/10/05 01:35:47;;;;;;;3.15;2.03;;;;;;;11.81;63.88;101204.53;5095059;28;20036;-32
2022/10/05 01:38:50;;;;;;;3.60;2.00;;;;;;;11.78;63.88;101200.09;5090964;28;20500;-33
2022/10/05 01:41:30;;;;;;;3.15;2.05;;;;;;;11.75;63.74;101199.25;5110755;27;20031;-32
2022/10/05 01:44:12;;;;;;;3.00;2.20;;;;;;;11.74;63.84;101202.81;5107664;27;20062;-33
2022/10/05 01:46:42;;;;;;;3.63;1.90;;;;;;;11.71;64.07;101198.41;5095549;28;20393;-32
2022/10/05 01:49:17;;;;;;;3.65;2.10;;;;;;;11.67;64.16;101208.09;5095299;28;20024;-32
2022/10/05 01:51:52;;;;;;;3.33;2.22;;;;;;;11.64;64.10;101218.69;5109079;27;20042;-32
2022/10/05 01:54:44;;;;;;;3.67;2.13;;;;;;;11.61;64.20;101217.84;5091604;27;20023;-33
2022/10/05 01:57:21;;;;;;;4.38;2.10;;;;;;;11.58;64.13;101224.00;5088811;28;20023;-34
2022/10/05 02:00:02;;;;;;;4.20;1.90;;;;;;;11.57;63.96;101211.66;5107824;28;20023;-33
2022/10/05 02:02:28;;;;;;;3.40;2.08;;;;;;;11.54;64.19;101212.56;5109102;27;20028;-34
2022/10/05 02:05:01;;;;;;;3.88;2.20;;;;;;;11.50;64.04;101207.28;5119282;27;20080;-34
2022/10/05 02:07:32;;;;;;;3.95;1.98;;;;;;;11.49;63.87;101208.19;5080842;28;20031;-34
2022/10/05 02:10:05;;;;;;;4.13;2.13;;;;;;;11.46;63.86;101209.09;5094863;28;20051;-34
2022/10/05 02:12:34;;;;;;;3.60;2.05;;;;;;;11.45;64.36;101211.72;5072925;27;20027;-34
2022/10/05 02:15:11;;;;;;;3.85;2.10;;;;;;;11.41;63.93;101203.81;5092120;28;20074;-33
2022/10/05 02:17:47;;;;;;;4.40;2.35;;;;;;;11.39;64.11;101202.06;5091630;28;20106;-33
2022/10/05 02:20:17;;;;;;;4.07;2.10;;;;;;;11.36;64.15;101207.34;5106599;27;20031;-33
2022/10/05 02:22:43;;;;;;;;;;;;;;;11.33;64.24;101208.25;5103391;27;20489;-33
2022/10/05 02:25:13;;;;;;;3.95;2.10;;;;;;;11.31;64.16;101199.47;5074366;27;20385;-34
2022/10/05 02:27:58;;;;;;;4.63;2.67;;;;;;;11.29;64.23;101198.59;5087940;27;20039;-33
2022/10/05 02:30:23;;;;;;;4.28;2.33;;;;;;;11.27;63.99;101182.75;5085770;28;20023;-33
2022/10/05 02:33:00;;;;;;;3.53;2.35;;;;;;;11.25;64.20;101189.81;5110988;28;20022;-33
2022/10/05 02:35:26;;;;;;;4.85;2.63;;;;;;;11.24;64.25;101182.75;5093503;27;20087;-34
2022/10/05 02:38:13;;;;;;;3.65;1.90;;;;;;;11.21;64.30;101177.50;5107950;27;20022;-34
2022/10/05 02:40:38;;;;;;;4.35;2.20;;;;;;;11.20;64.16;101180.16;5112845;27;20035;-34
2022/10/05 02:43:10;;;;;;;3.90;2.20;;;;;;;11.18;64.12;101179.25;5108433;27;20082;-34
2022/10/05 02:45:46;;;;;;;3.13;2.30;;;;;;;11.16;64.12;101184.53;5114455;27;20046;-34
2022/10/05 02:48:19;;;;;;;3.67;2.08;;;;;;;11.14;64.25;101181.91;5106756;28;20039;-34
2022/10/05 02:51:27;;;;;;;4.28;2.40;;;;;;;11.11;64.35;101176.63;5100551;28;20024;-34
2022/10/05 02:54:31;;;;;;;3.95;2.00;;;;;;;11.09;64.20;101174.88;5016015;28;20036;-34
2022/10/05 02:57:09;;;;;;;3.78;2.22;;;;;;;11.06;64.46;101170.50;5104830;28;20029;-34
2022/10/05 02:59:43;;;;;;;4.72;2.30;;;;;;;11.04;64.35;101180.19;5108417;27;20846;-34
2022/10/05 03:02:25;;;;;;;3.95;2.20;;;;;;;11.03;64.35;101179.31;5109736;27;20027;-34
2022/10/05 03:05:01;;;;;;;5.95;2.33;;;;;;;11.02;64.33;101174.03;5092681;28;20118;-34
2022/10/05 03:07:30;;;;;;;3.20;2.03;;;;;;;10.98;64.05;101170.53;5112191;27;20023;-34
2022/10/05 03:10:09;;;;;;;4.45;2.40;;;;;;;10.98;64.46;101169.66;5099768;27;20477;-34
2022/10/05 03:12:52;;;;;;;3.85;2.20;;;;;;;10.96;64.40;101182.84;5084601;28;20029;-34
2022/10/05 03:15:32;;;;;;;4.07;2.65;;;;;;;10.94;64.09;101183.75;5111480;27;20038;-34
2022/10/05 03:18:00;;;;;;;4.57;2.60;;;;;;;10.91;64.36;101182.84;5110535;27;20024;-34
2022/10/05 03:20:41;;;;;;;4.60;2.42;;;;;;;10.87;64.41;101183.75;5109017;27;20038;-34
2022/10/05 03:23:13;;;;;;;5.50;2.33;;;;;;;10.85;64.46;101185.53;5100606;28;20024;-33
2022/10/05 03:25:50;;;;;;;4.78;2.63;;;;;;;10.83;64.01;101184.63;5123426;27;20027;-35
2022/10/05 03:28:28;;;;;;;4.53;2.40;;;;;;;10.82;63.97;101180.25;5115116;27;20023;-33
2022/10/05 03:31:04;;;;;;;4.65;2.40;;;;;;;10.80;64.19;101176.72;5100279;28;20023;-33
2022/10/05 03:33:46;;;;;;;5.65;2.55;;;;;;;10.76;63.93;101181.13;5116106;27;20069;-33
2022/10/05 03:36:17;;;;;;;4.63;2.42;;;;;;;10.73;64.12;101178.50;5097843;28;20535;-34
2022/10/05 03:38:46;;;;;;;3.80;2.47;;;;;;;10.70;63.87;101172.38;5085527;28;20032;-34
2022/10/05 03:41:30;;;;;;;3.90;2.30;;;;;;;10.68;63.84;101177.63;5103337;27;20024;-34
2022/10/05 03:44:18;;;;;;;4.13;2.20;;;;;;;10.65;64.06;101161.81;5108602;27;20058;-34
2022/10/05 03:46:46;;;;;;;4.47;2.50;;;;;;;10.61;64.12;101166.19;5105094;28;20223;-34
2022/10/05 03:49:16;;;;;;;4.50;2.38;;;;;;;10.58;63.93;101162.69;5102221;28;20031;-33
2022/10/05 03:51:45;;;;;;;4.80;2.60;;;;;;;10.56;64.21;101162.69;5094725;28;20038;-34
2022/10/05 03:54:24;;;;;;;4.05;2.40;;;;;;;10.55;64.24;101160.94;5101157;27;20138;-34
2022/10/05 03:56:55;;;;;;;4.60;2.60;;;;;;;10.52;64.05;101150.38;5100161;28;20526;-34
2022/10/05 03:59:25;;;;;;;3.63;2.30;;;;;;;10.49;63.95;101151.28;5122644;27;20075;-34
2022/10/05 04:02:00;;;;;;;3.47;2.30;;;;;;;10.47;64.16;101142.47;5102618;27;20023;-34
2022/10/05 04:04:37;;;;;;;3.63;2.40;;;;;;;10.43;64.10;101148.59;5117441;27;20101;-34
2022/10/05 04:07:04;;;;;;;3.92;2.25;;;;;;;10.42;64.16;101151.25;5090035;27;20031;-33
2022/10/05 04:09:33;;;;;;;4.28;2.53;;;;;;;10.40;64.04;101156.50;5092697;28;20023;-33
2022/10/05 04:12:23;;;;;;;3.90;2.30;;;;;;;10.37;64.49;101156.53;5087939;28;20099;-33
2022/10/05 04:14:53;;;;;;;3.95;2.17;;;;;;;10.36;64.19;101158.28;5115583;27;20031;-34
2022/10/05 04:17:31;;;;;;;3.47;2.10;;;;;;;10.33;64.27;101153.00;5121072;27;20031;-34
2022/10/05 04:20:52;;;;;;;5.32;2.38;;;;;;;10.33;64.20;101155.66;5113202;27;20019;-34
2022/10/05 04:23:32;;;;;;;4.40;2.53;;;;;;;10.32;64.09;101148.63;5041694;28;20167;-33
2022/10/05 04:26:09;;;;;;;4.75;2.55;;;;;;;10.30;63.97;101149.50;5081852;28;20040;-34
2022/10/05 04:29:00;;;;;;;4.40;2.75;;;;;;;10.27;63.94;101155.63;5091338;27;20071;-34
2022/10/05 04:31:38;;;;;;;3.65;2.60;;;;;;;10.24;64.11;101155.66;5085815;28;20517;-36
2022/10/05 04:34:15;;;;;;;4.47;2.53;;;;;;;10.20;64.24;101153.91;5112943;28;20401;-35
2022/10/05 04:36:48;;;;;;;3.90;2.42;;;;;;;10.19;64.08;101146.84;5114129;27;20071;-35
2022/10/05 04:39:23;;;;;;;4.80;2.42;;;;;;;10.16;64.02;101136.31;5089665;28;20117;-34
2022/10/05 04:41:59;;;;;;;4.28;2.58;;;;;;;10.15;63.86;101135.44;5074029;28;20040;-35
2022/10/05 04:44:52;;;;;;;4.22;2.30;;;;;;;10.12;64.03;101131.06;5102191;27;20028;-35
2022/10/05 04:47:35;;;;;;;4.65;2.47;;;;;;;10.10;63.92;101137.19;5115558;28;20019;-34
2022/10/05 04:50:18;;;;;;;6.85;2.83;;;;;;;10.09;64.12;101136.31;5114504;28;20034;-35
2022/10/05 04:52:50;;;;;;;5.88;2.70;;;;;;;10.06;64.23;101136.31;5087906;28;20020;-35
2022/10/05 04:55:24;;;;;;;4.90;2.70;;;;;;;10.05;64.30;101144.22;5087293;28;20152;-35
2022/10/05 04:57:52;;;;;;;4.10;2.58;;;;;;;10.02;64.22;101139.81;5114072;28;20020;-35
2022/10/05 05:00:23;;;;;;;4.32;2.50;;;;;;;10.00;64.51;101133.66;5102206;28;20023;-35
2022/10/05 05:03:11;;;;;;;3.95;2.45;;;;;;;9.96;64.32;101139.81;5082029;28;20416;-35
2022/10/05 05:05:49;;;;;;;3.47;2.55;;;;;;;9.94;64.30;101146.84;5094738;28;21322;-35
2022/10/05 05:08:23;;;;;;;6.72;2.80;;;;;;;9.92;64.42;101148.59;5100617;28;20028;-35
2022/10/05 05:11:07;;;;;;;3.97;3.03;;;;;;;9.88;64.33;101153.00;5118249;28;20028;-35
2022/10/05 05:13:32;;;;;;;4.60;2.42;;;;;;;9.87;64.72;101149.47;5131488;28;20492;-35
2022/10/05 05:16:19;;;;;;;6.67;2.90;;;;;;;9.86;64.23;101155.63;5131995;28;20027;-33
2022/10/05 05:19:06;;;;;;;4.50;2.60;;;;;;;9.86;64.29;101155.63;5095596;28;20114;-33
2022/10/05 05:21:40;;;;;;;4.43;2.50;;;;;;;9.84;63.98;101152.09;5098808;28;20027;-33
2022/10/05 05:24:39;;;;;;;4.35;2.50;;;;;;;9.81;64.06;101144.22;5113641;28;20397;-33
2022/10/05 05:27:12;;;;;;;3.97;2.85;;;;;;;9.78;64.13;101132.78;5111958;28;20477;-34
2022/10/05 05:29:56;;;;;;;4.65;2.80;;;;;;;9.75;64.01;101125.75;5116732;28;20067;-34
2022/10/05 05:32:39;;;;;;;4.70;2.75;;;;;;;9.73;64.23;101115.19;5097296;28;20035;-34
2022/10/05 05:35:32;;;;;;;3.72;2.30;;;;;;;9.70;64.22;101127.50;5101964;28;20257;-34
2022/10/05 05:38:22;;;;;;;4.45;2.55;;;;;;;9.68;64.16;101118.72;5108183;28;20035;-34
2022/10/05 05:41:03;;;;;;;3.75;2.35;;;;;;;9.66;64.24;101120.44;5096204;28;20081;-33
2022/10/05 05:43:43;;;;;;;4.88;2.83;;;;;;;9.62;64.45;101120.47;5119508;28;20558;-34
2022/10/05 05:46:23;;;;;;;4.97;2.72;;;;;;;9.61;64.42;101121.31;5103679;28;20050;-34
2022/10/05 05:48:50;;;;;;;4.72;2.60;;;;;;;9.61;64.74;101123.09;5109115;28;20130;-34
2022/10/05 05:51:47;;;;;;;4.57;2.90;;;;;;;9.59;64.57;101114.28;5116220;28;20035;-34
2022/10/05 05:54:15;;;;;;;4.28;3.08;;;;;;;9.59;64.83;101122.19;5101557;28;20047;-34
2022/10/05 05:56:44;;;;;;;5.10;3.03;;;;;;;9.58;64.88;101121.34;5116204;27;20024;-34
2022/10/05 05:59:16;;;;;;;4.55;3.05;;;;;;;9.56;65.07;101115.16;5097114;28;20383;-34
2022/10/05 06:01:48;;;;;;;4.85;3.22;;;;;;;9.55;65.11;101121.31;5092661;28;20058;-33
2022/10/05 06:04:43;;;;;;;5.60;3.28;;;;;;;9.55;65.22;101123.97;5085947;28;20036;-34
2022/10/05 06:07:15;;;;;;;4.93;3.17;;;;;;;9.54;65.65;101116.91;5118134;27;20477;-33
2022/10/05 06:09:57;;;;;;;5.63;3.33;;;;;;;9.54;65.75;101122.16;5087374;28;20032;-33
2022/10/05 06:12:40;;;;;;;6.30;3.58;;;;;;;9.54;65.81;101122.16;5112417;27;20031;-33
2022/10/05 06:15:32;;;;;;;6.00;2.92;;;;;;;9.54;66.00;101121.31;5118432;27;20079;-33
2022/10/05 06:18:02;;;;;;;5.40;3.22;;;;;;;9.50;66.38;101121.31;5113236;27;20054;-35
2022/10/05 06:20:33;;;;;;;6.50;3.67;;;;;;;9.52;66.65;101123.94;5083760;27;20126;-35
2022/10/05 06:23:01;;;;;;;8.15;3.72;;;;;;;9.52;66.69;101125.69;5108858;27;20098;-35
2022/10/05 06:25:48;;;;;;;6.57;3.40;;;;;;;9.53;66.92;101133.59;5109419;27;20056;-35
2022/10/05 06:28:17;;;;;;;7.35;3.72;;;;;;;9.55;67.19;101145.03;5093028;28;20031;-35
2022/10/05 06:30:50;;;;;;;6.70;3.40;;;;;;;9.57;67.28;101147.66;5086074;28;20027;-35
2022/10/05 06:33:29;;;;;;;6.55;3.25;;;;;;;9.57;67.47;101137.13;5112766;27;20051;-35
2022/10/05 06:36:07;;;;;;;6.97;3.20;;;;;;;9.58;67.31;101139.78;5122658;27;20493;-33
2022/10/05 06:38:57;;;;;;;6.28;3.28;;;;;;;9.59;67.32;101144.16;5129707;27;20560;-35
2022/10/05 06:41:47;;;;;;;5.47;3.67;;;;;;;9.60;67.54;101152.91;5108892;27;20377;-35
2022/10/05 06:44:20;;;;;;;5.85;3.05;;;;;;;9.60;67.80;101148.53;5107846;27;20034;-35
2022/10/05 06:47:04;;;;;;;6.25;3.80;;;;;;;9.61;67.48;101137.13;5122055;27;20015;-35
2022/10/05 06:49:42;;;;;;;5.97;3.38;;;;;;;9.62;67.64;101138.91;5108366;28;20156;-35
2022/10/05 06:52:29;;;;;;;6.00;3.30;;;;;;;9.63;67.82;101148.56;5093759;28;20024;-35
2022/10/05 06:55:15;;;;;;;6.00;3.15;;;;;;;9.65;67.98;101145.91;5104908;28;20028;-34
2022/10/05 06:58:03;;;;;;;6.05;2.80;;;;;;;9.65;68.08;101140.66;5089229;28;20115;-34
2022/10/05 07:00:39;;;;;;;4.80;2.92;;;;;;;9.67;68.15;101146.78;5095555;28;20032;-34
2022/10/05 07:03:35;;;;;;;5.20;3.15;;;;;;;9.67;68.45;101153.84;5096081;28;20056;-33
2022/10/05 07:06:12;;;;;;;6.05;3.25;;;;;;;9.68;68.10;101145.03;5095753;28;20055;-34
2022/10/05 07:09:15;;;;;;;5.05;2.92;;;;;;;9.69;68.19;101146.78;5077228;28;20101;-34
2022/10/05 07:11:46;;;;;;;7.18;3.28;;;;;;;9.70;67.82;101154.69;5097079;28;20053;-34
2022/10/05 07:14:18;;;;;;;5.00;3.20;;;;;;;9.73;67.32;101140.66;5108485;28;20047;-33
2022/10/05 07:17:04;;;;;;;4.25;2.67;;;;;;;9.73;67.36;101138.03;5095956;28;20414;-34
2022/10/05 07:19:54;;;;;;;4.72;3.05;;;;;;;9.77;66.72;101131.88;5097187;28;20025;-34
2022/10/05 07:22:47;;;;;;;5.63;2.70;;;;;;;9.83;66.73;101138.91;5110334;28;20773;-34
2022/10/05 07:25:15;;;;;;;4.88;2.70;;;;;;;9.84;66.77;101136.28;5099099;28;20444;-33
2022/10/05 07:28:05;;;;;;;5.50;3.08;;;;;;;9.87;66.44;101131.03;5105276;28;20032;-33
2022/10/05 07:30:47;;;;;;;6.40;2.95;;;;;;;9.90;66.33;101126.66;5080957;28;20039;-33
2022/10/05 07:33:39;;;;;;;4.85;3.22;;;;;;;9.94;66.40;101125.78;5065702;28;20028;-33
2022/10/05 07:39:11;;;;;;;3.95;2.70;;;;;;;9.97;66.26;101121.38;5104431;28;20038;-33
2022/10/05 07:41:47;;;;;;;4.88;2.70;;;;;;;10.03;66.28;101122.28;5114649;28;20080;-33
2022/10/05 07:44:15;;;;;;;5.97;3.25;;;;;;;10.05;66.29;101117.84;5116756;28;20035;-34
2022/10/05 07:47:22;;;;;;;5.88;3.08;;;;;;;10.09;66.51;101120.50;5098824;28;20034;-33
2022/10/05 07:49:58;;;;;;;4.70;2.45;;;;;;;10.14;66.22;101125.78;5048995;28;20126;-33
2022/10/05 07:52:30;;;;;;;5.45;2.90;;;;;;;10.18;66.23;101118.75;5072045;28;20111;-34
2022/10/05 07:55:37;;;;;;;4.90;2.83;;;;;;;10.19;66.43;101116.09;5084818;28;20024;-34
2022/10/05 07:58:27;;;;;;;5.28;2.85;;;;;;;10.27;66.16;101118.72;5094099;28;20144;-33
2022/10/05 08:01:05;;;;;;;5.32;2.90;;;;;;;10.33;66.46;101118.72;5089539;28;20115;-34
2022/10/05 08:03:45;;;;;;;4.68;2.88;;;;;;;10.36;66.25;101118.72;5113621;28;20027;-33
2022/10/05 08:06:23;;;;;;;4.50;2.60;;;;;;;10.42;66.47;101119.59;5105301;28;20031;-33
2022/10/05 08:08:56;;;;;;;4.72;2.58;;;;;;;10.48;66.24;101127.53;5125437;22;20050;-31
2022/10/05 08:12:13;;;;;;;4.75;2.95;;;;;;;10.52;66.34;101116.09;5105071;28;20032;-31
2022/10/05 08:14:51;;;;;;;5.65;2.90;;;;;;;10.59;66.16;101115.22;5105681;27;20035;-31
2022/10/05 08:17:24;;;;;;;4.88;2.97;;;;;;;10.65;66.67;101109.94;5132730;27;20023;-31
2022/10/05 08:20:35;;;;;;;6.35;2.90;;;;;;;10.74;66.62;101110.78;5104196;28;20469;-31
2022/10/05 08:23:24;;;;;;;6.00;2.90;;;;;;;10.80;66.79;101108.13;5081796;28;20401;-31
2022/10/05 08:26:09;;;;;;;4.15;2.85;;;;;;;10.86;66.80;101099.31;5104151;28;20031;-31
2022/10/05 08:28:42;;;;;;;4.07;2.80;;;;;;;10.93;66.61;101102.81;5100585;28;20054;-31
2022/10/05 08:31:15;;;;;;;4.70;3.08;;;;;;;10.96;66.66;101102.78;5074614;28;20031;-31
2022/10/05 08:33:49;;;;;;;5.78;2.67;;;;;;;11.00;66.33;101104.53;5089474;28;20413;-31
2022/10/05 08:36:20;;;;;;;4.82;2.90;;;;;;;11.04;66.71;101109.78;5107526;28;20108;-31
2022/10/05 08:38:46;;;;;;;5.80;2.83;;;;;;;11.09;66.69;101108.91;5110503;28;20029;-31
2022/10/05 08:41:12;;;;;;;5.00;3.25;;;;;;;11.12;66.76;101112.41;5085315;28;20028;-31
2022/10/05 08:43:44;;;;;;;6.15;3.15;;;;;;;11.19;67.03;101110.63;5111731;28;20016;-30
2022/10/05 08:46:31;;;;;;;5.53;3.25;;;;;;;11.25;66.77;101104.44;5110981;28;20511;-31
2022/10/05 08:49:28;;;;;;;4.22;2.80;;;;;;;11.31;66.63;101095.59;5105854;28;20033;-31
2022/10/05 08:52:23;;;;;;;4.90;3.13;;;;;;;11.38;66.69;101094.69;5111875;28;20020;-31
2022/10/05 08:55:07;;;;;;;5.45;2.95;;;;;;;11.42;66.71;101097.31;5111831;28;20020;-31
2022/10/05 08:58:09;;;;;;;6.55;3.35;;;;;;;11.50;66.71;101099.88;5111691;28;20402;-31
2022/10/05 09:00:37;;;;;;;5.18;2.72;;;;;;;11.57;66.99;101098.06;5110449;28;20063;-31
2022/10/05 09:03:29;;;;;;;5.78;3.10;;;;;;;11.63;67.37;101098.03;5092608;28;20020;-31
2022/10/05 09:06:05;;;;;;;5.30;3.30;;;;;;;11.71;67.22;101098.00;5113552;28;20034;-31
2022/10/05 09:08:39;;;;;;;5.28;3.28;;;;;;;11.75;67.18;101093.56;5097958;28;20386;-31
2022/10/05 09:11:33;;;;;;;6.10;3.20;;;;;;;11.81;67.41;101094.38;5112186;28;20051;-31
2022/10/05 09:14:19;;;;;;;6.65;3.55;;;;;;;11.88;67.25;101094.34;5110203;28;20039;-31
2022/10/05 09:17:30;;;;;;;4.78;3.00;;;;;;;11.94;67.37;101087.25;5102986;28;20028;-31
2022/10/05 09:20:20;;;;;;;6.40;3.13;;;;;;;12.00;67.53;101082.81;5101327;28;20024;-31
2022/10/05 09:23:32;;;;;;;6.00;3.33;;;;;;;12.06;67.65;101088.94;5110988;28;20149;-31
2022/10/05 09:26:09;;;;;;;6.50;3.17;;;;;;;12.16;67.74;101087.09;5080188;28;20124;-31
2022/10/05 09:29:17;;;;;;;6.90;3.58;;;;;;;12.25;67.99;101090.53;5087353;28;20259;-31
2022/10/05 09:32:14;;;;;;;5.25;3.30;;;;;;;12.38;69.28;101092.19;5093652;28;20032;-31
2022/10/05 09:35:04;;;;;;;5.82;3.17;;;;;;;12.51;68.89;101084.13;5115233;28;20080;-32
2022/10/05 09:37:48;;;;;;;7.25;3.22;;;;;;;12.60;68.85;101088.44;5115004;28;20024;-32
2022/10/05 09:40:35;;;;;;;6.45;3.70;;;;;;;12.75;70.18;101082.09;5119545;27;20031;-32
2022/10/05 09:43:04;;;;;;;6.43;4.18;;;;;;;12.91;71.49;101090.72;5119004;27;20550;-32
2022/10/05 09:46:34;;;;;;;6.75;3.80;;;;;;;13.06;72.08;101085.25;5114753;28;20100;-33
2022/10/05 09:49:17;;;;;;;7.00;3.72;;;;;;;13.24;72.73;101087.66;5009556;28;19909;-33
2022/10/05 09:51:43;;;;;;;6.47;3.85;;;;;;;13.36;72.98;101082.19;5011683;28;20040;-31
2022/10/05 09:54:27;;;;;;;7.75;4.35;;;;;;;13.47;73.01;101085.56;5089258;28;20027;-32
2022/10/05 09:57:07;;;;;;;6.85;4.10;;;;;;;13.64;73.66;101078.28;5112873;28;20035;-32
2022/10/05 09:59:57;;;;;;;6.00;3.72;;;;;;;13.80;73.66;101084.22;5114734;28;20024;-31
2022/10/05 10:02:37;;;;;;;6.40;3.80;;;;;;;13.98;73.61;101083.91;5096393;28;20088;-31
2022/10/05 10:05:19;;;;;;;6.50;3.50;;;;;;;14.10;73.41;101071.34;5114608;28;20034;-31
2022/10/05 10:08:10;;;;;;;6.00;3.70;;;;;;;14.30;73.48;101080.75;5114743;28;20118;-31
2022/10/05 10:11:01;;;;;;;8.23;3.55;;;;;;;14.47;72.92;101086.59;5086020;28;20122;-32
2022/10/05 10:13:54;;;;;;;5.95;3.13;;;;;;;14.58;72.61;101078.41;5096465;28;20024;-31
2022/10/05 10:16:32;;;;;;;5.60;3.50;;;;;;;14.65;72.12;101073.91;5114750;28;20432;-32
2022/10/05 10:19:30;;;;;;;4.35;2.97;;;;;;;14.79;72.16;101075.41;5096169;28;20550;-31
2022/10/05 10:22:18;;;;;;;7.70;3.50;;;;;;;14.93;72.08;101069.81;5114671;28;20023;-31
2022/10/05 10:24:59;;;;;;;5.55;3.30;;;;;;;15.07;71.68;101080.16;5094515;28;20031;-31
2022/10/05 10:27:46;;;;;;;7.97;3.95;;;;;;;15.17;71.62;101065.75;5113770;28;20399;-32
2022/10/05 10:30:38;;;;;;;3.92;3.00;;;;;;;15.34;71.22;101056.56;5114394;28;20102;-31
2022/10/05 10:33:51;;;;;;;5.55;3.38;;;;;;;15.44;71.18;101059.88;5114458;28;20027;-31
2022/10/05 10:36:17;;;;;;;5.72;3.63;;;;;;;15.60;70.69;101063.00;5114147;28;20024;-31
2022/10/05 10:39:01;;;;;;;6.43;3.38;;;;;;;15.76;70.01;101059.09;5113699;28;20039;-31
2022/10/05 10:41:42;;;;;;;5.45;3.30;;;;;;;15.86;69.42;101057.06;5112158;28;20031;-31
2022/10/05 10:44:33;;;;;;;5.85;3.45;;;;;;;15.95;68.90;101053.34;5112679;28;20016;-31
2022/10/05 10:47:04;;;;;;;5.72;3.67;;;;;;;16.01;68.48;101047.84;5114203;28;20039;-31
2022/10/05 10:50:03;;;;;;;6.60;3.40;;;;;;;16.09;68.12;101052.97;5113903;28;20023;-32
2022/10/05 10:52:52;;;;;;;5.25;3.65;;;;;;;16.14;68.14;101047.56;5119536;27;20024;-32
2022/10/05 10:55:34;;;;;;;4.90;3.55;;;;;;;16.17;68.09;101071.38;5114396;27;20045;-31
2022/10/05 10:58:23;;;;;;;5.38;3.30;;;;;;;16.23;68.07;101060.59;5095814;28;20029;-32
2022/10/05 11:00:57;;;;;;;6.82;3.53;;;;;;;16.32;68.22;101058.59;5110887;28;20416;-31
2022/10/05 11:03:22;;;;;;;4.90;3.42;;;;;;;16.37;68.08;101065.53;5113223;28;20470;-31
2022/10/05 11:05:54;;;;;;;5.55;3.55;;;;;;;16.37;67.73;101062.88;5113603;28;20051;-32
2022/10/05 11:08:47;;;;;;;4.55;3.55;;;;;;;16.43;67.65;101064.50;5111409;27;20096;-31
2022/10/05 11:11:37;;;;;;;5.85;3.65;;;;;;;16.52;67.98;101066.03;5113467;28;20394;-31
2022/10/05 11:14:23;;;;;;;8.38;4.22;;;;;;;16.59;68.17;101061.41;5113069;28;20027;-31
2022/10/05 11:17:00;;;;;;;5.15;3.70;;;;;;;16.64;68.29;101059.50;5060664;28;20042;-31
2022/10/05 11:19:31;;;;;;;5.40;4.15;;;;;;;16.70;67.98;101061.97;5111652;28;20436;-31
2022/10/05 11:22:31;;;;;;;5.68;3.95;;;;;;;16.75;67.54;101053.88;5113003;28;20031;-32
2022/10/05 11:25:14;;;;;;;6.40;4.00;;;;;;;16.83;67.40;101051.84;5049957;28;20029;-32
2022/10/05 11:27:53;;;;;;;6.68;4.03;;;;;;;16.91;67.29;101059.63;5106914;27;20040;-30
2022/10/05 11:31:06;;;;;;;6.10;4.35;;;;;;;16.97;67.40;101053.25;5133981;27;20438;-32
2022/10/05 11:34:09;;;;;;;6.43;4.00;;;;;;;17.03;67.34;101043.25;5076092;28;20067;-30
2022/10/05 11:36:54;;;;;;;7.65;3.63;;;;;;;17.11;67.10;101055.50;5112989;28;20550;-31
2022/10/05 11:40:02;;;;;;;6.63;4.18;;;;;;;17.19;67.00;101056.16;5113056;28;20114;-31
2022/10/05 11:43:14;;;;;;;8.07;3.85;;;;;;;17.27;67.18;101046.13;5078922;28;20032;-32
2022/10/05 11:45:51;;;;;;;6.43;4.03;;;;;;;17.36;66.90;101054.75;5090981;28;20028;-31
2022/10/05 11:48:46;;;;;;;6.53;3.65;;;;;;;17.45;66.70;101051.78;5109737;28;20061;-31
2022/10/05 11:51:29;;;;;;;5.47;3.58;;;;;;;17.55;66.41;101042.56;5110214;28;20106;-32
2022/10/05 11:54:19;;;;;;;5.72;3.63;;;;;;;17.61;66.44;101040.63;5111799;28;20018;-31
2022/10/05 11:57:22;;;;;;;6.85;3.38;;;;;;;17.69;66.36;101030.56;5126170;27;20114;-31
2022/10/05 11:59:51;;;;;;;5.40;3.45;;;;;;;17.80;65.39;101028.41;5125307;27;20031;-32
2022/10/05 12:02:47;;;;;;;5.68;3.90;;;;;;;17.86;65.14;101026.47;5112730;28;20019;-31
2022/10/05 12:05:35;;;;;;;6.03;3.90;;;;;;;17.94;64.87;101008.41;5092139;28;20031;-32
2022/10/05 12:08:19;;;;;;;5.43;3.60;;;;;;;18.04;64.53;101023.16;5075841;28;20073;-32
2022/10/05 12:11:23;;;;;;;4.68;3.65;;;;;;;18.17;64.19;101009.44;5092262;28;20028;-31
2022/10/05 12:14:28;;;;;;;4.80;3.38;;;;;;;18.24;64.16;101016.25;5080546;28;20027;-32
2022/10/05 12:16:58;;;;;;;5.88;4.20;;;;;;;18.28;64.04;101012.56;5092782;28;20359;-30
2022/10/05 12:19:47;;;;;;;5.80;3.65;;;;;;;18.33;63.51;101005.28;5112129;28;20378;-31
2022/10/05 12:22:38;;;;;;;4.57;3.70;;;;;;;18.42;62.90;100995.16;5096634;28;20096;-31
2022/10/05 12:25:15;;;;;;;4.97;3.13;;;;;;;18.51;62.81;100993.97;5094056;28;20088;-31
2022/10/05 12:27:45;;;;;;;4.65;3.50;;;;;;;18.59;62.42;100999.88;5111208;28;20091;-32
2022/10/05 12:30:52;;;;;;;4.22;3.55;;;;;;;18.70;61.79;100992.34;5094063;28;20070;-31
2022/10/05 12:33:22;;;;;;;4.88;3.05;;;;;;;18.73;62.13;100988.66;5110670;28;20098;-31
2022/10/05 12:36:02;;;;;;;5.53;3.70;;;;;;;18.77;61.79;100984.94;5111696;28;20175;-31